Atlanta, Georgia
Traffic Map
Current Weather Conditions
Atlanta, Georgia
Broken Clouds
Broken Clouds
26°
Feels Like: 28°
Wind Chill: 26° Ceiling: 25000
Heat Index: 28° Visibility: 10mi
Dew Point: 22° Wind: 7mph
Humidity: 77% Direction: 270° (W)
Pressure: 30.02in Gusts: 0mph
Raw Report DataKATL 241352Z 27006KT 10SM FEW150 SCT180 BKN250 26/22 A3002 RMK AO2 SLP153 T02610217
Traffic Incident Summary
Active as of:
Severity:
Category:
InformationThere was an issue retrieving the traffic information for this location. Please try a different location or try again shortly.
Advertisements
Track Severe Weather on mobile